createdAt,value
2017-09-08T00:01:50.267Z,11.20
2017-09-08T00:04:17.702Z,11.10
2017-09-08T00:06:45.156Z,11.10
2017-09-08T00:09:12.595Z,11.10
2017-09-08T00:11:40.808Z,11.00
2017-09-08T00:14:08.257Z,11.10
2017-09-08T00:16:35.685Z,11.10
2017-09-08T00:19:04.724Z,11.00
2017-09-08T00:21:32.168Z,11.00
2017-09-08T00:23:59.622Z,11.00
2017-09-08T00:26:27.055Z,11.10
2017-09-08T00:28:55.276Z,11.00
2017-09-08T00:31:22.718Z,11.00
2017-09-08T00:33:50.168Z,10.90
2017-09-08T00:36:17.621Z,11.00
2017-09-08T00:38:45.077Z,11.00
2017-09-08T00:41:12.508Z,10.90
2017-09-08T00:43:40.732Z,11.00
2017-09-08T00:46:08.165Z,11.00
2017-09-08T00:48:35.619Z,11.00
2017-09-08T00:51:03.064Z,10.90
2017-09-08T00:53:30.503Z,10.80
2017-09-08T00:55:58.709Z,10.90
2017-09-08T00:58:26.174Z,10.90
2017-09-08T01:00:53.620Z,10.90
2017-09-08T01:03:21.068Z,10.90
2017-09-08T01:05:48.502Z,10.90
2017-09-08T01:08:16.716Z,10.80
2017-09-08T01:10:44.159Z,10.80
2017-09-08T01:13:11.598Z,10.70
2017-09-08T01:15:39.046Z,10.80
2017-09-08T01:18:07.259Z,10.70
2017-09-08T01:20:34.702Z,10.70
2017-09-08T01:23:02.143Z,10.70
2017-09-08T01:25:29.583Z,10.70
2017-09-08T01:27:57.787Z,10.60
2017-09-08T01:30:25.244Z,10.60
2017-09-08T01:32:52.688Z,10.70
2017-09-08T01:35:20.122Z,10.70
2017-09-08T01:37:48.331Z,10.60
2017-09-08T01:40:15.772Z,10.60
2017-09-08T01:42:43.211Z,10.60
2017-09-08T01:45:10.653Z,10.60
2017-09-08T01:47:38.871Z,10.50
2017-09-08T01:50:06.307Z,10.50
2017-09-08T01:52:33.756Z,10.60
2017-09-08T01:55:01.195Z,10.60
2017-09-08T01:57:28.641Z,10.60
2017-09-08T01:59:56.075Z,10.50
2017-09-08T02:02:23.528Z,10.50
2017-09-08T02:04:50.963Z,10.50
2017-09-08T02:07:18.417Z,10.50
2017-09-08T02:09:45.842Z,10.50
2017-09-08T02:12:13.292Z,10.50
2017-09-08T02:14:40.731Z,10.30
2017-09-08T02:17:08.195Z,10.40
2017-09-08T02:19:35.635Z,10.40
2017-09-08T02:22:08.667Z,10.40
2017-09-08T02:24:36.103Z,10.50
2017-09-08T02:27:04.315Z,10.60
2017-09-08T02:29:31.770Z,10.50
2017-09-08T02:31:59.198Z,10.60
2017-09-08T02:34:27.412Z,10.60
2017-09-08T02:36:54.855Z,10.60
2017-09-08T02:39:22.312Z,10.60
2017-09-08T02:41:49.755Z,10.60
2017-09-08T02:44:17.195Z,10.70
2017-09-08T02:46:45.400Z,10.80
2017-09-08T02:49:12.855Z,10.80
2017-09-08T02:51:40.295Z,10.90
2017-09-08T02:54:07.748Z,10.90
2017-09-08T02:56:35.195Z,10.80
2017-09-08T02:59:02.639Z,10.80
2017-09-08T03:01:30.078Z,10.90
2017-09-08T03:03:57.527Z,10.90
2017-09-08T03:06:24.968Z,11.00
2017-09-08T03:08:52.424Z,10.80
2017-09-08T03:11:19.871Z,10.80
2017-09-08T03:13:47.323Z,10.80
2017-09-08T03:16:14.771Z,10.80
2017-09-08T03:18:42.212Z,10.80
2017-09-08T03:21:09.654Z,10.90
2017-09-08T03:23:37.859Z,10.90
2017-09-08T03:26:05.312Z,10.90
2017-09-08T03:28:32.750Z,10.90
2017-09-08T03:31:00.201Z,10.90
2017-09-08T03:33:27.639Z,10.90
2017-09-08T03:35:55.088Z,11.00
2017-09-08T03:38:23.290Z,11.00
2017-09-08T03:40:50.734Z,11.00
2017-09-08T03:43:18.175Z,11.00
2017-09-08T03:45:45.615Z,11.10
2017-09-08T03:48:13.067Z,11.10
2017-09-08T03:50:40.524Z,11.10
2017-09-08T03:53:07.971Z,11.10
2017-09-08T03:55:35.416Z,11.10
2017-09-08T03:58:02.862Z,11.10
2017-09-08T04:00:30.325Z,11.00
2017-09-08T04:02:57.746Z,10.90
2017-09-08T04:05:25.196Z,10.90
2017-09-08T04:07:53.404Z,10.90
2017-09-08T04:10:20.857Z,10.90
2017-09-08T04:12:48.294Z,10.90
2017-09-08T04:15:15.734Z,11.00
2017-09-08T04:17:43.183Z,11.00
2017-09-08T04:20:11.393Z,11.10
2017-09-08T04:22:38.835Z,11.00
2017-09-08T04:25:06.276Z,11.00
2017-09-08T04:27:34.486Z,10.80
2017-09-08T04:30:01.928Z,10.80
2017-09-08T04:32:29.371Z,10.80
2017-09-08T04:34:57.590Z,10.70
2017-09-08T04:37:25.027Z,10.70
2017-09-08T04:39:52.472Z,10.80
2017-09-08T04:42:19.938Z,10.90
2017-09-08T04:44:47.375Z,10.80
2017-09-08T04:47:14.811Z,10.80
2017-09-08T04:49:43.035Z,10.90
2017-09-08T04:52:10.479Z,10.90
2017-09-08T04:54:37.935Z,10.90
2017-09-08T04:57:05.380Z,10.90
2017-09-08T04:59:32.819Z,11.00
2017-09-08T05:02:00.262Z,11.00
2017-09-08T05:04:28.476Z,10.90
2017-09-08T05:06:55.911Z,10.90
2017-09-08T05:09:23.356Z,11.00
2017-09-08T05:11:51.563Z,11.00
2017-09-08T05:14:19.026Z,11.00
2017-09-08T05:16:46.464Z,11.10
2017-09-08T05:19:13.903Z,11.10
2017-09-08T05:21:42.111Z,11.20
2017-09-08T05:24:09.556Z,11.20
2017-09-08T05:26:37.383Z,11.30
2017-09-08T05:29:04.883Z,11.40
2017-09-08T05:31:32.342Z,11.40
2017-09-08T05:33:59.778Z,11.50
2017-09-08T05:36:27.227Z,11.60
2017-09-08T05:38:55.712Z,11.80
2017-09-08T05:41:23.511Z,11.80
2017-09-08T05:43:50.956Z,12.00
2017-09-08T05:46:18.416Z,12.20
2017-09-08T05:48:45.846Z,12.40
2017-09-08T05:51:13.291Z,12.60
2017-09-08T05:53:40.726Z,12.70
2017-09-08T05:56:08.155Z,13.00
2017-09-08T05:58:35.603Z,13.10
2017-09-08T06:01:03.043Z,13.30
2017-09-08T06:03:30.499Z,13.00
2017-09-08T06:05:57.939Z,13.10
2017-09-08T06:08:25.382Z,13.20
2017-09-08T06:10:53.599Z,13.30
2017-09-08T06:13:21.042Z,13.30
2017-09-08T06:15:48.475Z,13.30
2017-09-08T06:18:15.919Z,13.50
2017-09-08T06:20:44.131Z,13.50
2017-09-08T06:23:11.585Z,13.50
2017-09-08T06:25:39.022Z,13.50
2017-09-08T06:28:06.466Z,13.40
2017-09-08T06:30:34.683Z,13.80
2017-09-08T06:33:02.151Z,13.80
2017-09-08T06:35:29.595Z,13.90
2017-09-08T06:37:57.037Z,14.30
2017-09-08T06:40:24.494Z,14.60
2017-09-08T06:42:51.935Z,14.50
2017-09-08T06:45:19.383Z,14.70
2017-09-08T06:47:47.591Z,15.00
2017-09-08T06:50:15.052Z,15.00
2017-09-08T06:52:42.491Z,15.00
2017-09-08T06:55:09.948Z,15.00
2017-09-08T06:57:37.392Z,15.00
2017-09-08T07:00:04.836Z,15.10
2017-09-08T07:02:32.270Z,15.10
2017-09-08T07:05:00.490Z,15.20
2017-09-08T07:07:27.926Z,15.20
2017-09-08T07:09:55.365Z,15.20
2017-09-08T07:12:23.574Z,15.30
2017-09-08T07:14:51.031Z,15.30
2017-09-08T07:17:18.487Z,15.30
2017-09-08T07:19:45.958Z,15.30
2017-09-08T07:22:13.502Z,15.30
2017-09-08T07:24:40.944Z,15.30
2017-09-08T07:27:08.378Z,15.30
2017-09-08T07:29:36.586Z,15.30
2017-09-08T07:32:04.037Z,15.30
2017-09-08T07:34:31.498Z,15.20
2017-09-08T07:36:58.958Z,15.30
2017-09-08T07:39:26.406Z,15.30
2017-09-08T07:41:53.850Z,15.30
2017-09-08T07:44:21.295Z,15.40
2017-09-08T07:46:49.510Z,15.40
2017-09-08T07:49:16.973Z,15.40
2017-09-08T07:51:44.427Z,15.50
2017-09-08T07:54:11.866Z,15.50
2017-09-08T07:56:39.322Z,15.50
2017-09-08T07:59:06.768Z,15.60
2017-09-08T08:01:34.235Z,15.60
2017-09-08T08:04:01.676Z,15.60
2017-09-08T08:06:29.123Z,15.70
2017-09-08T08:08:57.334Z,15.80
2017-09-08T08:11:24.779Z,15.80
2017-09-08T08:13:52.218Z,15.80
2017-09-08T08:16:19.688Z,15.80
2017-09-08T08:18:47.131Z,15.90
2017-09-08T08:21:14.574Z,16.10
2017-09-08T08:23:42.020Z,16.10
2017-09-08T08:26:10.232Z,16.10
2017-09-08T08:28:37.685Z,16.20
2017-09-08T08:31:05.138Z,16.30
2017-09-08T08:33:32.587Z,16.30
2017-09-08T08:36:00.022Z,16.30
2017-09-08T08:38:28.243Z,16.30
2017-09-08T08:40:55.686Z,16.30
2017-09-08T08:43:23.143Z,16.50
2017-09-08T08:45:50.584Z,16.50
2017-09-08T08:48:18.035Z,16.80
2017-09-08T08:50:45.475Z,16.80
2017-09-08T08:53:13.695Z,17.10
2017-09-08T08:55:41.144Z,17.10
2017-09-08T08:58:08.595Z,17.20
2017-09-08T09:00:36.034Z,17.20
2017-09-08T09:03:03.474Z,17.00
2017-09-08T09:05:31.682Z,17.20
2017-09-08T09:07:59.133Z,17.10
2017-09-08T09:10:26.576Z,17.10
2017-09-08T09:12:54.021Z,17.30
2017-09-08T09:15:21.460Z,17.40
2017-09-08T09:17:49.662Z,18.50
2017-09-08T09:20:17.106Z,18.40
2017-09-08T09:22:44.547Z,19.10
2017-09-08T09:25:12.767Z,19.40
2017-09-08T09:27:40.206Z,19.30
2017-09-08T09:30:07.655Z,19.80
2017-09-08T09:32:35.090Z,19.80
2017-09-08T09:35:03.307Z,20.20
2017-09-08T09:37:30.752Z,20.10
2017-09-08T09:39:58.191Z,20.60
2017-09-08T09:42:25.640Z,20.80
2017-09-08T09:44:53.079Z,20.30
2017-09-08T09:47:20.518Z,20.10
2017-09-08T09:49:47.961Z,20.00
2017-09-08T09:52:15.416Z,19.90
2017-09-08T09:54:42.866Z,20.50
2017-09-08T09:57:10.412Z,20.20
2017-09-08T09:59:37.872Z,20.70
2017-09-08T10:02:05.327Z,20.00
2017-09-08T10:04:32.783Z,19.80
2017-09-08T10:07:00.240Z,19.90
2017-09-08T10:09:27.674Z,19.30
2017-09-08T10:11:55.123Z,19.10
2017-09-08T10:14:23.342Z,19.10
2017-09-08T10:16:50.781Z,19.10
2017-09-08T10:19:18.223Z,19.20
2017-09-08T10:21:45.666Z,19.20
2017-09-08T10:24:13.107Z,18.90
2017-09-08T10:26:41.323Z,19.10
2017-09-08T10:29:08.759Z,19.10
2017-09-08T10:31:36.206Z,19.10
2017-09-08T10:34:04.422Z,19.40
2017-09-08T10:36:31.877Z,19.30
2017-09-08T10:38:59.318Z,19.20
2017-09-08T10:41:26.758Z,19.40
2017-09-08T10:43:54.207Z,19.70
2017-09-08T10:46:21.655Z,19.50
2017-09-08T10:48:49.874Z,19.30
2017-09-08T10:51:17.320Z,19.30
2017-09-08T10:53:44.774Z,19.20
2017-09-08T10:56:12.229Z,19.30
2017-09-08T10:58:39.687Z,19.50
2017-09-08T11:01:07.118Z,19.20
2017-09-08T11:03:34.600Z,19.20
2017-09-08T11:06:02.771Z,19.20
2017-09-08T11:08:30.222Z,19.10
2017-09-08T11:10:57.667Z,19.20
2017-09-08T11:13:25.110Z,19.40
2017-09-08T11:15:52.555Z,19.30
2017-09-08T11:18:20.786Z,19.40
2017-09-08T11:20:48.239Z,19.40
2017-09-08T11:23:15.675Z,19.60
2017-09-08T11:25:43.131Z,19.60
2017-09-08T11:28:10.575Z,20.00
2017-09-08T11:30:38.022Z,20.00
2017-09-08T11:33:11.154Z,20.30
2017-09-08T11:35:44.234Z,20.00
2017-09-08T11:38:11.682Z,19.90
2017-09-08T11:40:39.138Z,20.00
2017-09-08T11:43:06.574Z,20.30
2017-09-08T11:45:34.018Z,20.10
2017-09-08T11:48:01.459Z,20.20
2017-09-08T11:50:29.683Z,19.80
2017-09-08T11:52:57.134Z,19.70
2017-09-08T11:55:24.734Z,20.10
2017-09-08T11:57:52.185Z,20.10
2017-09-08T12:00:19.630Z,19.90
2017-09-08T12:02:47.075Z,19.90
2017-09-08T12:05:14.519Z,19.80
2017-09-08T12:07:41.974Z,20.00
2017-09-08T12:10:09.426Z,20.40
2017-09-08T12:12:36.864Z,20.60
2017-09-08T12:15:04.319Z,20.80
2017-09-08T12:17:31.763Z,20.70
2017-09-08T12:19:59.206Z,20.60
2017-09-08T12:22:26.649Z,20.50
2017-09-08T12:24:54.120Z,20.30
2017-09-08T12:27:22.339Z,20.50
2017-09-08T12:29:49.784Z,20.50
2017-09-08T12:32:17.251Z,20.10
2017-09-08T12:34:44.779Z,20.30
2017-09-08T12:37:12.370Z,20.10
2017-09-08T12:39:39.902Z,20.00
2017-09-08T12:42:07.351Z,20.20
2017-09-08T12:44:34.885Z,20.00
2017-09-08T12:47:03.410Z,19.80
2017-09-08T12:49:30.852Z,19.80
2017-09-08T12:51:59.066Z,19.70
2017-09-08T12:54:26.551Z,19.70
2017-09-08T12:56:53.999Z,19.80
2017-09-08T12:59:21.443Z,19.70
2017-09-08T13:01:48.973Z,19.90
2017-09-08T13:04:16.506Z,20.00
2017-09-08T13:06:44.822Z,19.90
2017-09-08T13:09:12.270Z,19.90
2017-09-08T13:11:39.727Z,19.70
2017-09-08T13:14:07.363Z,19.80
2017-09-08T13:16:35.572Z,19.90
2017-09-08T13:19:03.016Z,19.90
2017-09-08T13:21:30.491Z,20.20
2017-09-08T13:23:57.942Z,20.00
2017-09-08T13:26:25.396Z,19.90
2017-09-08T13:28:52.841Z,20.00
2017-09-08T13:31:20.298Z,19.90
2017-09-08T13:33:47.755Z,20.20
2017-09-08T13:36:15.219Z,20.10
2017-09-08T13:38:42.666Z,20.00
2017-09-08T13:41:10.115Z,20.00
2017-09-08T13:43:38.259Z,19.80
2017-09-08T13:46:05.751Z,19.70
2017-09-08T13:48:33.270Z,19.80
2017-09-08T13:51:01.496Z,19.70
2017-09-08T13:53:28.939Z,19.70
2017-09-08T13:55:56.408Z,19.80
2017-09-08T13:58:23.851Z,19.60
2017-09-08T14:00:51.318Z,19.60
2017-09-08T14:03:18.868Z,19.80
2017-09-08T14:05:47.146Z,20.00
2017-09-08T14:08:14.592Z,20.00
2017-09-08T14:10:42.048Z,19.90
2017-09-08T14:13:09.499Z,20.00
2017-09-08T14:15:36.942Z,19.60
2017-09-08T14:18:05.156Z,19.70
2017-09-08T14:20:32.612Z,19.70
2017-09-08T14:23:00.062Z,19.70
2017-09-08T14:25:27.511Z,19.80
2017-09-08T14:27:54.972Z,19.70
2017-09-08T14:30:22.410Z,19.60
2017-09-08T14:32:49.865Z,19.70
2017-09-08T14:35:17.334Z,19.60
2017-09-08T14:37:44.775Z,19.80
2017-09-08T14:40:12.255Z,19.90
2017-09-08T14:42:39.698Z,19.90
2017-09-08T14:45:07.138Z,20.20
2017-09-08T14:47:35.347Z,20.30
2017-09-08T14:50:02.791Z,20.30
2017-09-08T14:52:30.243Z,20.20
2017-09-08T14:54:57.690Z,20.10
2017-09-08T14:57:25.132Z,20.00
2017-09-08T14:59:52.583Z,20.00
2017-09-08T15:02:20.018Z,19.80
2017-09-08T15:04:48.239Z,19.90
2017-09-08T15:07:15.686Z,19.90
2017-09-08T15:09:43.130Z,19.90
2017-09-08T15:12:11.342Z,19.80
2017-09-08T15:14:38.786Z,19.80
2017-09-08T15:17:06.262Z,19.80
2017-09-08T15:19:33.695Z,19.50
2017-09-08T15:22:01.134Z,19.50
2017-09-08T15:24:28.591Z,19.30
2017-09-08T15:26:56.026Z,19.30
2017-09-08T15:29:24.238Z,19.40
2017-09-08T15:31:51.686Z,19.30
2017-09-08T15:34:19.127Z,19.40
2017-09-08T15:36:46.563Z,19.20
2017-09-08T15:39:14.779Z,19.10
2017-09-08T15:41:42.239Z,19.10
2017-09-08T15:44:09.763Z,19.20
2017-09-08T15:46:37.967Z,19.00
2017-09-08T15:49:05.423Z,19.00
2017-09-08T15:51:32.880Z,19.00
2017-09-08T15:54:00.338Z,19.00
2017-09-08T15:56:27.779Z,19.00
2017-09-08T15:58:55.226Z,18.90
2017-09-08T16:01:22.659Z,18.80
2017-09-08T16:03:50.883Z,18.90
2017-09-08T16:06:18.323Z,18.90
2017-09-08T16:08:45.790Z,18.80
2017-09-08T16:11:13.251Z,18.80
2017-09-08T16:13:40.715Z,18.70
2017-09-08T16:16:08.158Z,18.70
2017-09-08T16:18:35.602Z,18.70
2017-09-08T16:21:03.061Z,18.70
2017-09-08T16:23:30.582Z,18.50
2017-09-08T16:25:58.806Z,18.50
2017-09-08T16:28:26.244Z,18.50
2017-09-08T16:30:53.682Z,18.50
2017-09-08T16:33:21.118Z,18.40
2017-09-08T16:35:49.346Z,18.30
2017-09-08T16:38:16.817Z,18.30
2017-09-08T16:40:44.260Z,18.30
2017-09-08T16:43:11.803Z,18.30
2017-09-08T16:45:39.275Z,18.20
2017-09-08T16:48:06.714Z,18.20
2017-09-08T16:50:34.162Z,18.10
2017-09-08T16:53:01.604Z,18.00
2017-09-08T16:55:29.822Z,17.90
2017-09-08T16:57:57.362Z,17.90
2017-09-08T17:00:24.966Z,17.90
2017-09-08T17:02:53.350Z,17.90
2017-09-08T17:05:20.944Z,17.90
2017-09-08T17:07:48.427Z,17.80
2017-09-08T17:10:15.870Z,17.80
2017-09-08T17:12:43.322Z,17.80
2017-09-08T17:15:11.530Z,17.60
2017-09-08T17:17:38.995Z,17.60
2017-09-08T17:20:06.447Z,17.60
2017-09-08T17:22:33.899Z,17.60
2017-09-08T17:25:01.363Z,17.60
2017-09-08T17:27:28.793Z,17.60
2017-09-08T17:29:56.242Z,17.60
2017-09-08T17:32:23.681Z,17.50
2017-09-08T17:34:51.891Z,17.40
2017-09-08T17:37:19.334Z,17.40
2017-09-08T17:39:46.775Z,17.40
2017-09-08T17:42:14.215Z,17.30
2017-09-08T17:44:42.424Z,17.30
2017-09-08T17:47:09.868Z,17.20
2017-09-08T17:49:37.307Z,17.20
2017-09-08T17:52:04.776Z,17.10
2017-09-08T17:54:32.219Z,17.00
2017-09-08T17:57:00.423Z,16.90
2017-09-08T17:59:27.875Z,16.90
2017-09-08T18:01:55.334Z,16.80
2017-09-08T18:04:22.786Z,16.70
2017-09-08T18:06:50.226Z,16.70
2017-09-08T18:09:17.674Z,16.80
2017-09-08T18:11:45.883Z,16.60
2017-09-08T18:14:13.332Z,16.60
2017-09-08T18:16:40.787Z,16.50
2017-09-08T18:19:08.242Z,16.30
2017-09-08T18:21:35.686Z,16.10
2017-09-08T18:24:03.135Z,16.00
2017-09-08T18:26:30.574Z,16.00
2017-09-08T18:28:58.816Z,16.10
2017-09-08T18:31:26.256Z,16.10
2017-09-08T18:33:53.698Z,16.10
2017-09-08T18:36:21.152Z,15.90
2017-09-08T18:38:48.591Z,15.80
2017-09-08T18:41:16.036Z,15.90
2017-09-08T18:43:44.240Z,15.70
2017-09-08T18:46:11.695Z,15.70
2017-09-08T18:48:39.134Z,15.50
2017-09-08T18:51:06.583Z,15.30
2017-09-08T18:53:34.022Z,15.20
2017-09-08T18:56:02.235Z,15.00
2017-09-08T18:58:29.674Z,15.00
2017-09-08T19:00:57.115Z,15.00
2017-09-08T19:03:25.322Z,15.00
2017-09-08T19:05:52.794Z,15.00
2017-09-08T19:08:20.235Z,15.00
2017-09-08T19:10:47.679Z,15.10
2017-09-08T19:13:15.155Z,15.10
2017-09-08T19:15:42.604Z,15.00
2017-09-08T19:18:10.043Z,15.00
2017-09-08T19:20:37.487Z,15.00
2017-09-08T19:23:05.711Z,15.30
2017-09-08T19:25:33.152Z,15.30
2017-09-08T19:28:00.603Z,15.30
2017-09-08T19:30:28.043Z,15.50
2017-09-08T19:32:55.487Z,15.50
2017-09-08T19:35:22.925Z,15.20
2017-09-08T19:37:51.151Z,15.20
2017-09-08T19:40:18.599Z,15.20
2017-09-08T19:42:46.039Z,15.20
2017-09-08T19:45:13.479Z,15.10
2017-09-08T19:47:41.705Z,14.80
2017-09-08T19:50:09.155Z,14.70
2017-09-08T19:52:36.638Z,14.80
2017-09-08T19:55:04.118Z,14.90
2017-09-08T19:57:32.332Z,14.80
2017-09-08T19:59:59.777Z,14.80
2017-09-08T20:02:27.267Z,14.90
2017-09-08T20:04:54.724Z,14.90
2017-09-08T20:07:22.171Z,15.00
2017-09-08T20:09:49.623Z,15.00
2017-09-08T20:12:17.066Z,14.80
2017-09-08T20:14:44.511Z,14.80
2017-09-08T20:17:11.942Z,14.70
2017-09-08T20:19:40.150Z,15.10
2017-09-08T20:22:07.587Z,15.10
2017-09-08T20:24:35.035Z,15.20
2017-09-08T20:27:03.238Z,15.20
2017-09-08T20:29:30.706Z,15.20
2017-09-08T20:31:58.150Z,15.00
2017-09-08T20:34:25.599Z,14.80
2017-09-08T20:36:53.046Z,14.80
2017-09-08T20:39:20.490Z,14.60
2017-09-08T20:41:47.939Z,14.60
2017-09-08T20:44:16.146Z,14.60
2017-09-08T20:46:43.603Z,14.60
2017-09-08T20:49:11.054Z,14.70
2017-09-08T20:51:38.499Z,14.60
2017-09-08T20:54:05.943Z,14.50
2017-09-08T20:56:34.160Z,14.50
2017-09-08T20:59:01.603Z,14.40
2017-09-08T21:01:29.058Z,14.30
2017-09-08T21:03:56.491Z,14.40
2017-09-08T21:06:23.949Z,14.40
2017-09-08T21:08:51.384Z,14.30
2017-09-08T21:11:19.598Z,14.10
2017-09-08T21:13:47.108Z,14.00
2017-09-08T21:16:15.330Z,14.30
2017-09-08T21:18:42.866Z,14.20
2017-09-08T21:21:10.425Z,14.30
2017-09-08T21:23:37.867Z,14.20
2017-09-08T21:26:06.084Z,14.40
2017-09-08T21:28:33.612Z,14.40
2017-09-08T21:31:01.831Z,14.50
2017-09-08T21:33:29.264Z,14.50
2017-09-08T21:35:56.734Z,14.50
2017-09-08T21:38:24.175Z,14.40
2017-09-08T21:40:51.626Z,14.50
2017-09-08T21:43:19.066Z,14.40
2017-09-08T21:45:46.635Z,14.40
2017-09-08T21:48:14.249Z,14.50
2017-09-08T21:50:41.733Z,14.50
2017-09-08T21:53:09.936Z,15.00
2017-09-08T21:55:37.376Z,14.90
2017-09-08T21:58:04.966Z,14.90
2017-09-08T22:00:32.406Z,15.00
2017-09-08T22:02:59.846Z,15.10
2017-09-08T22:05:27.288Z,14.90
2017-09-08T22:07:55.506Z,14.60
2017-09-08T22:10:22.951Z,14.60
2017-09-08T22:12:50.406Z,14.60
2017-09-08T22:15:17.852Z,14.60
2017-09-08T22:17:45.294Z,14.50
2017-09-08T22:20:13.507Z,14.40
2017-09-08T22:22:40.951Z,14.40
2017-09-08T22:25:08.390Z,14.40
2017-09-08T22:27:35.834Z,14.40
2017-09-08T22:30:04.037Z,14.40
2017-09-08T22:32:31.478Z,14.40
2017-09-08T22:34:58.919Z,14.30
2017-09-08T22:37:26.359Z,14.30
2017-09-08T22:39:54.575Z,14.40
2017-09-08T22:42:22.034Z,14.40
2017-09-08T22:44:49.475Z,14.30
2017-09-08T22:47:16.914Z,14.10
2017-09-08T22:49:44.355Z,14.20
2017-09-08T22:52:11.815Z,14.10
2017-09-08T22:54:39.255Z,14.10
2017-09-08T22:57:06.691Z,14.10
2017-09-08T22:59:34.150Z,14.20
2017-09-08T23:02:01.595Z,14.10
2017-09-08T23:04:29.038Z,14.00
2017-09-08T23:06:56.471Z,14.10
2017-09-08T23:09:24.686Z,14.20
2017-09-08T23:11:52.130Z,14.20
2017-09-08T23:14:19.584Z,14.30
2017-09-08T23:16:47.018Z,14.10
2017-09-08T23:19:14.458Z,14.10
2017-09-08T23:21:41.894Z,14.10
2017-09-08T23:24:09.347Z,14.00
2017-09-08T23:26:36.779Z,13.80
2017-09-08T23:29:04.227Z,13.80
2017-09-08T23:31:31.667Z,13.80
2017-09-08T23:33:59.125Z,13.70
2017-09-08T23:36:26.562Z,13.70
2017-09-08T23:38:54.007Z,13.70
2017-09-08T23:41:22.214Z,13.90
2017-09-08T23:43:49.669Z,13.90
2017-09-08T23:46:17.121Z,14.00
2017-09-08T23:48:44.566Z,14.00
2017-09-08T23:51:12.011Z,14.00
2017-09-08T23:53:39.447Z,14.10
2017-09-08T23:56:07.673Z,14.00
2017-09-08T23:58:35.091Z,13.90
